createdAt,value
2023-08-30T00:00:54.978Z,100612.38
2023-08-30T00:01:56.883Z,100614.16
2023-08-30T00:02:58.802Z,100608.03
2023-08-30T00:04:01.144Z,100606.25
2023-08-30T00:05:04.978Z,100605.38
2023-08-30T00:06:08.210Z,100608.00
2023-08-30T00:07:11.697Z,100601.00
2023-08-30T00:08:14.784Z,100610.63
2023-08-30T00:09:17.155Z,100608.03
2023-08-30T00:10:19.049Z,100606.31
2023-08-30T00:11:21.615Z,100603.75
2023-08-30T00:12:23.216Z,100602.03
2023-08-30T00:13:26.375Z,100603.00
2023-08-30T00:14:27.973Z,100607.44
2023-08-30T00:15:29.871Z,100604.84
2023-08-30T00:16:31.578Z,100607.53
2023-08-30T00:17:33.357Z,100609.31
2023-08-30T00:18:35.085Z,100605.91
2023-08-30T00:19:37.229Z,100601.53
2023-08-30T00:20:39.023Z,100605.13
2023-08-30T00:21:41.485Z,100601.66
2023-08-30T00:22:43.827Z,100603.47
2023-08-30T00:23:49.350Z,100601.75
2023-08-30T00:24:52.011Z,100596.50
2023-08-30T00:25:53.776Z,100600.97
2023-08-30T00:26:55.766Z,100606.25
2023-08-30T00:27:57.529Z,100603.66
2023-08-30T00:28:59.523Z,100599.31
2023-08-30T00:30:01.437Z,100606.38
2023-08-30T00:31:03.310Z,100595.91
2023-08-30T00:32:06.106Z,100602.97
2023-08-30T00:33:07.903Z,100604.75
2023-08-30T00:34:10.021Z,100596.00
2023-08-30T00:35:11.659Z,100606.53
2023-08-30T00:36:13.473Z,100602.19
2023-08-30T00:37:15.119Z,100603.94
2023-08-30T00:38:16.793Z,100594.34
2023-08-30T00:39:18.440Z,100593.47
2023-08-30T00:40:25.761Z,100595.25
2023-08-30T00:41:28.377Z,100598.81
2023-08-30T00:42:30.121Z,100599.72
2023-08-30T00:43:31.747Z,100598.03
2023-08-30T00:44:33.378Z,100602.41
2023-08-30T00:45:39.776Z,100591.03
2023-08-30T00:46:42.407Z,100600.72
2023-08-30T00:47:45.325Z,100599.00
2023-08-30T00:48:47.072Z,100598.13
2023-08-30T00:49:48.930Z,100596.34
2023-08-30T00:50:51.067Z,100596.34
2023-08-30T00:51:53.373Z,100596.41
2023-08-30T00:52:55.130Z,100592.91
2023-08-30T00:53:57.069Z,100599.13
2023-08-30T00:55:00.784Z,100594.69
2023-08-30T00:56:02.901Z,100598.22
2023-08-30T00:57:07.252Z,100602.72
2023-08-30T00:58:09.499Z,100597.50
2023-08-30T00:59:11.576Z,100594.88
2023-08-30T01:00:13.448Z,100592.31
2023-08-30T01:01:17.701Z,100589.72
2023-08-30T01:02:19.914Z,100592.41
2023-08-30T01:03:22.866Z,100583.72
2023-08-30T01:04:27.573Z,100586.47
2023-08-30T01:05:29.763Z,100588.28
2023-08-30T01:06:31.384Z,100583.94
2023-08-30T01:07:34.666Z,100584.88
2023-08-30T01:08:38.711Z,100582.28
2023-08-30T01:09:41.243Z,100584.97
2023-08-30T01:11:12.328Z,100583.25
2023-08-30T01:12:21.465Z,100586.81
2023-08-30T01:13:22.956Z,100588.63
2023-08-30T01:14:37.140Z,100585.25
2023-08-30T01:15:40.912Z,100585.31
2023-08-30T01:16:43.250Z,100589.72
2023-08-30T01:17:49.239Z,100595.03
2023-08-30T01:18:55.939Z,100582.84
2023-08-30T01:20:10.170Z,100587.38
2023-08-30T01:21:22.890Z,100588.34
2023-08-30T01:22:33.358Z,100584.03
2023-08-30T01:23:47.230Z,100581.53
2023-08-30T01:25:01.667Z,100577.16
2023-08-30T01:26:38.040Z,100570.28
2023-08-30T01:27:41.375Z,100567.78
2023-08-30T01:28:43.026Z,100570.47
2023-08-30T01:29:47.351Z,100567.00
2023-08-30T01:30:50.014Z,100564.38
2023-08-30T01:31:52.836Z,100568.81
2023-08-30T01:32:56.926Z,100567.06
2023-08-30T01:33:58.956Z,100564.44
2023-08-30T01:35:02.914Z,100564.50
2023-08-30T01:36:06.007Z,100566.34
2023-08-30T01:37:09.694Z,100566.41
2023-08-30T01:38:12.674Z,100564.69
2023-08-30T01:39:16.077Z,100564.75
2023-08-30T01:40:19.119Z,100561.28
2023-08-30T01:41:24.727Z,100561.28
2023-08-30T01:42:28.269Z,100557.88
2023-08-30T01:43:31.746Z,100557.94
2023-08-30T01:44:34.931Z,100558.88
2023-08-30T01:45:42.019Z,100557.16
2023-08-30T01:46:47.213Z,100556.38
2023-08-30T01:47:49.861Z,100562.53
2023-08-30T01:48:53.326Z,100559.91
2023-08-30T01:49:56.722Z,100558.25
2023-08-30T01:51:01.346Z,100557.41
2023-08-30T01:52:03.846Z,100557.41
2023-08-30T01:53:07.690Z,100554.75
2023-08-30T01:54:11.015Z,100556.50
2023-08-30T01:55:16.220Z,100552.19
2023-08-30T01:56:17.984Z,100555.72
2023-08-30T01:57:19.944Z,100550.47
2023-08-30T01:58:21.695Z,100545.25
2023-08-30T01:59:23.384Z,100547.88
2023-08-30T02:00:26.449Z,100544.38
2023-08-30T02:01:28.409Z,100546.16
2023-08-30T02:02:31.563Z,100549.69
2023-08-30T02:03:33.273Z,100550.56
2023-08-30T02:04:35.196Z,100548.00
2023-08-30T02:05:41.428Z,100546.28
2023-08-30T02:06:43.047Z,100552.44
2023-08-30T02:07:50.928Z,100553.34
2023-08-30T02:09:27.507Z,100551.72
2023-08-30T02:10:35.564Z,100552.59
2023-08-30T02:11:38.686Z,100550.84
2023-08-30T02:12:47.495Z,100547.38
2023-08-30T02:13:50.094Z,100547.44
2023-08-30T02:14:52.415Z,100547.50
2023-08-30T02:15:58.079Z,100543.25
2023-08-30T02:17:00.550Z,100543.25
2023-08-30T02:18:04.948Z,100547.63
2023-08-30T02:19:08.448Z,100543.28
2023-08-30T02:20:12.609Z,100542.47
2023-08-30T02:21:14.837Z,100549.53
2023-08-30T02:22:16.522Z,100549.53
2023-08-30T02:23:18.292Z,100546.91
2023-08-30T02:24:20.042Z,100544.34
2023-08-30T02:25:25.451Z,100549.53
2023-08-30T02:26:27.213Z,100546.97
2023-08-30T02:27:29.770Z,100546.13
2023-08-30T02:28:31.531Z,100544.34
2023-08-30T02:29:34.561Z,100551.38
2023-08-30T02:30:36.249Z,100554.84
2023-08-30T02:31:38.500Z,100549.66
2023-08-30T02:32:40.393Z,100552.28
2023-08-30T02:33:42.061Z,100554.13
2023-08-30T02:34:43.665Z,100546.28
2023-08-30T02:35:46.376Z,100555.09
2023-08-30T02:36:48.073Z,100547.25
2023-08-30T02:37:50.093Z,100549.00
2023-08-30T02:38:51.918Z,100542.91
2023-08-30T02:39:53.727Z,100542.91
2023-08-30T02:40:55.792Z,100543.78
2023-08-30T02:41:57.425Z,100552.56
2023-08-30T02:42:59.384Z,100549.06
2023-08-30T02:44:01.536Z,100545.53
2023-08-30T02:45:03.281Z,100548.22
2023-08-30T02:46:06.524Z,100548.22
2023-08-30T02:47:08.266Z,100552.63
2023-08-30T02:48:12.954Z,100555.25
2023-08-30T02:49:14.908Z,100552.63
2023-08-30T02:50:16.614Z,100550.00
2023-08-30T02:51:18.255Z,100550.88
2023-08-30T02:52:20.080Z,100540.38
2023-08-30T02:53:21.676Z,100545.63
2023-08-30T02:54:23.625Z,100542.13
2023-08-30T02:55:25.919Z,100547.38
2023-08-30T02:56:27.961Z,100542.13
2023-08-30T02:57:29.890Z,100543.06
2023-08-30T02:58:34.136Z,100542.13
2023-08-30T02:59:36.208Z,100543.06
2023-08-30T03:00:41.166Z,100544.81
2023-08-30T03:01:45.018Z,100547.44
2023-08-30T03:02:50.085Z,100547.44
2023-08-30T03:03:51.934Z,100543.97
2023-08-30T03:04:54.866Z,100541.38
2023-08-30T03:05:58.046Z,100549.28
2023-08-30T03:07:00.335Z,100544.00
2023-08-30T03:08:04.394Z,100538.75
2023-08-30T03:09:07.514Z,100536.19
2023-08-30T03:10:13.032Z,100539.66
2023-08-30T03:11:15.871Z,100533.50
2023-08-30T03:12:22.985Z,100537.91
2023-08-30T03:13:25.118Z,100536.13
2023-08-30T03:14:26.843Z,100530.03
2023-08-30T03:15:28.647Z,100534.34
2023-08-30T03:16:30.779Z,100536.06
2023-08-30T03:17:33.288Z,100528.19
2023-08-30T03:19:37.846Z,100531.66
2023-08-30T03:20:39.931Z,100542.13
2023-08-30T03:21:42.708Z,100536.03
2023-08-30T03:22:44.730Z,100536.88
2023-08-30T03:23:46.356Z,100539.56
2023-08-30T03:24:48.087Z,100541.34
2023-08-30T03:25:49.883Z,100543.13
2023-08-30T03:26:52.846Z,100541.44
2023-08-30T03:27:54.989Z,100537.94
2023-08-30T03:28:58.529Z,100540.63
2023-08-30T03:30:02.817Z,100534.50
2023-08-30T03:31:17.871Z,100533.66
2023-08-30T03:32:21.410Z,100532.84
2023-08-30T03:33:24.375Z,100530.28
2023-08-30T03:34:26.215Z,100534.63
2023-08-30T03:35:27.946Z,100542.56
2023-08-30T03:36:30.014Z,100535.53
2023-08-30T03:37:31.673Z,100530.28
2023-08-30T03:38:33.415Z,100530.28
2023-08-30T03:39:36.272Z,100525.91
2023-08-30T03:40:40.800Z,100525.00
2023-08-30T03:41:42.925Z,100528.53
2023-08-30T03:42:45.086Z,100518.03
2023-08-30T03:43:46.691Z,100521.53
2023-08-30T03:44:48.317Z,100524.16
2023-08-30T03:45:50.015Z,100520.66
2023-08-30T03:46:53.605Z,100520.66
2023-08-30T03:47:55.985Z,100524.16
2023-08-30T03:48:57.741Z,100524.16
2023-08-30T03:50:00.133Z,100523.28
2023-08-30T03:51:01.859Z,100523.22
2023-08-30T03:52:03.975Z,100518.84
2023-08-30T03:53:06.340Z,100516.16
2023-08-30T03:54:10.054Z,100517.03
2023-08-30T03:55:11.742Z,100513.50
2023-08-30T03:56:13.508Z,100512.66
2023-08-30T03:57:15.604Z,100510.84
2023-08-30T03:58:19.041Z,100502.97
2023-08-30T03:59:22.826Z,100502.97
2023-08-30T04:00:25.033Z,100502.91
2023-08-30T04:01:26.787Z,100503.81
2023-08-30T04:02:28.623Z,100504.69
2023-08-30T04:03:31.595Z,100510.81
2023-08-30T04:04:33.409Z,100496.88
2023-08-30T04:05:36.177Z,100509.13
2023-08-30T04:06:38.001Z,100499.53
2023-08-30T04:07:40.094Z,100504.78
2023-08-30T04:08:41.835Z,100496.91
2023-08-30T04:09:43.497Z,100490.78
2023-08-30T04:10:48.592Z,100493.38
2023-08-30T04:11:50.889Z,100488.97
2023-08-30T04:12:52.855Z,100492.47
2023-08-30T04:13:54.861Z,100481.91
2023-08-30T04:14:56.632Z,100481.94
2023-08-30T04:16:00.321Z,100476.69
2023-08-30T04:17:02.053Z,100482.00
2023-08-30T04:18:05.992Z,100485.53
2023-08-30T04:19:08.133Z,100487.25
2023-08-30T04:20:11.629Z,100480.28
2023-08-30T04:21:13.290Z,100482.84
2023-08-30T04:22:15.103Z,100481.13
2023-08-30T04:23:16.844Z,100477.59
2023-08-30T04:24:20.023Z,100482.84
2023-08-30T04:25:23.270Z,100482.84
2023-08-30T04:26:27.406Z,100484.56
2023-08-30T04:27:29.395Z,100484.56
2023-08-30T04:28:32.112Z,100481.94
2023-08-30T04:29:34.035Z,100482.84
2023-08-30T04:30:38.602Z,100486.34
2023-08-30T04:31:40.991Z,100481.09
2023-08-30T04:32:42.699Z,100480.22
2023-08-30T04:33:44.797Z,100481.09
2023-08-30T04:34:46.467Z,100478.47
2023-08-30T04:35:52.544Z,100477.53
2023-08-30T04:36:54.699Z,100478.41
2023-08-30T04:37:57.006Z,100476.63
2023-08-30T04:39:03.112Z,100474.84
2023-08-30T04:40:12.718Z,100475.72
2023-08-30T04:41:15.012Z,100472.28
2023-08-30T04:42:17.342Z,100478.38
2023-08-30T04:43:19.021Z,100479.22
2023-08-30T04:44:25.988Z,100481.78
2023-08-30T04:45:28.713Z,100478.25
2023-08-30T04:46:30.863Z,100486.06
2023-08-30T04:47:33.188Z,100482.53
2023-08-30T04:48:36.436Z,100480.75
2023-08-30T04:49:38.178Z,100484.28
2023-08-30T04:50:40.082Z,100475.44
2023-08-30T04:51:41.723Z,100482.44
2023-08-30T04:52:43.641Z,100483.25
2023-08-30T04:53:45.914Z,100479.69
2023-08-30T04:54:50.036Z,100473.53
2023-08-30T04:55:51.920Z,100473.47
2023-08-30T04:56:56.194Z,100483.94
2023-08-30T04:58:00.188Z,100477.75
2023-08-30T04:59:06.205Z,100485.53
2023-08-30T05:00:08.708Z,100480.22
2023-08-30T05:01:12.358Z,100480.13
2023-08-30T05:02:15.963Z,100480.94
2023-08-30T05:03:29.830Z,100473.88
2023-08-30T05:04:32.871Z,100489.59
2023-08-30T05:05:36.039Z,100481.72
2023-08-30T05:06:37.803Z,100482.59
2023-08-30T05:07:40.202Z,100489.59
2023-08-30T05:08:42.082Z,100483.38
2023-08-30T05:09:43.768Z,100482.44
2023-08-30T05:10:47.570Z,100484.19
2023-08-30T05:11:49.722Z,100480.69
2023-08-30T05:12:53.772Z,100482.34
2023-08-30T05:13:56.686Z,100476.16
2023-08-30T05:14:58.294Z,100481.31
2023-08-30T05:16:02.656Z,100480.41
2023-08-30T05:17:05.337Z,100478.59
2023-08-30T05:18:07.337Z,100480.28
2023-08-30T05:19:11.157Z,100481.13
2023-08-30T05:20:12.905Z,100485.41
2023-08-30T05:21:16.001Z,100480.09
2023-08-30T05:22:17.780Z,100481.75
2023-08-30T05:23:20.069Z,100482.53
2023-08-30T05:24:23.262Z,100486.84
2023-08-30T05:25:25.136Z,100480.59
2023-08-30T05:26:26.786Z,100484.94
2023-08-30T05:27:28.882Z,100483.97
2023-08-30T05:28:31.171Z,100485.63
2023-08-30T05:29:33.206Z,100477.66
2023-08-30T05:30:35.297Z,100482.81
2023-08-30T05:31:47.524Z,100484.47
2023-08-30T05:33:07.761Z,100478.25
2023-08-30T05:34:36.380Z,100472.84
2023-08-30T05:36:01.507Z,100478.03
2023-08-30T05:37:26.282Z,100485.81
2023-08-30T05:38:32.935Z,100486.59
2023-08-30T05:39:43.393Z,100477.72
2023-08-30T05:40:46.327Z,100474.97
2023-08-30T05:41:47.929Z,100474.91
2023-08-30T05:42:51.241Z,100477.38
2023-08-30T05:43:52.913Z,100470.25
2023-08-30T05:44:56.897Z,100476.34
2023-08-30T05:46:03.274Z,100471.84
2023-08-30T05:47:06.283Z,100467.41
2023-08-30T05:48:08.532Z,100467.28
2023-08-30T05:49:12.480Z,100468.94
2023-08-30T05:50:14.318Z,100474.00
2023-08-30T05:51:16.899Z,100467.78
2023-08-30T05:52:19.673Z,100465.91
2023-08-30T05:53:21.677Z,100467.53
2023-08-30T05:54:23.305Z,100468.34
2023-08-30T05:55:25.162Z,100470.00
2023-08-30T05:56:26.995Z,100465.56
2023-08-30T05:57:34.794Z,100468.94
2023-08-30T05:58:37.312Z,100468.88
2023-08-30T05:59:38.945Z,100464.41
2023-08-30T06:00:41.202Z,100464.25
2023-08-30T06:01:42.993Z,100462.38
2023-08-30T06:02:46.002Z,100464.03
2023-08-30T06:03:47.870Z,100469.09
2023-08-30T06:04:52.452Z,100461.94
2023-08-30T06:05:55.050Z,100460.91
2023-08-30T06:06:57.606Z,100460.69
2023-08-30T06:07:59.666Z,100456.16
2023-08-30T06:09:01.656Z,100455.13
2023-08-30T06:10:04.126Z,100450.50
2023-08-30T06:11:06.294Z,100452.09
2023-08-30T06:12:08.290Z,100448.34
2023-08-30T06:13:10.062Z,100445.53
2023-08-30T06:14:11.694Z,100447.13
2023-08-30T06:15:13.341Z,100446.84
2023-08-30T06:16:15.171Z,100442.22
2023-08-30T06:17:17.678Z,100442.84
2023-08-30T06:18:20.162Z,100444.44
2023-08-30T06:19:22.025Z,100443.31
2023-08-30T06:20:23.699Z,100441.34
2023-08-30T06:21:26.123Z,100437.72
2023-08-30T06:22:27.753Z,100429.66
2023-08-30T06:23:29.948Z,100433.78
2023-08-30T06:24:31.566Z,100441.56
2023-08-30T06:25:33.160Z,100437.00
2023-08-30T06:26:35.103Z,100433.31
2023-08-30T06:27:56.720Z,100433.09
2023-08-30T06:29:04.434Z,100428.47
2023-08-30T06:30:07.221Z,100433.53
2023-08-30T06:31:09.087Z,100435.09
2023-08-30T06:32:11.540Z,100436.59
2023-08-30T06:33:13.183Z,100427.53
2023-08-30T06:34:15.068Z,100433.38
2023-08-30T06:35:18.260Z,100427.81
2023-08-30T06:36:20.093Z,100427.50
2023-08-30T06:37:21.925Z,100424.69
2023-08-30T06:38:23.542Z,100420.97
2023-08-30T06:39:26.010Z,100426.88
2023-08-30T06:40:27.599Z,100430.25
2023-08-30T06:41:29.937Z,100425.56
2023-08-30T06:42:31.564Z,100428.00
2023-08-30T06:43:33.215Z,100421.69
2023-08-30T06:44:35.169Z,100424.13
2023-08-30T06:45:36.754Z,100423.06
2023-08-30T06:46:38.915Z,100423.66
2023-08-30T06:47:41.131Z,100426.94
2023-08-30T06:48:42.771Z,100427.56
2023-08-30T06:49:44.797Z,100420.31
2023-08-30T06:50:46.370Z,100417.47
2023-08-30T06:51:48.346Z,100411.09
2023-08-30T06:52:50.219Z,100419.72
2023-08-30T06:53:52.047Z,100418.69
2023-08-30T06:54:54.837Z,100417.69
2023-08-30T06:56:02.469Z,100428.09
2023-08-30T06:57:05.100Z,100422.56
2023-08-30T06:58:07.058Z,100425.84
2023-08-30T06:59:08.759Z,100423.81
2023-08-30T07:00:11.476Z,100427.09
2023-08-30T07:01:13.726Z,100424.19
2023-08-30T07:02:16.021Z,100423.09
2023-08-30T07:03:17.874Z,100421.06
2023-08-30T07:04:19.917Z,100418.09
2023-08-30T07:05:23.010Z,100416.88
2023-08-30T07:06:25.986Z,100412.09
2023-08-30T07:07:27.642Z,100422.25
2023-08-30T07:08:29.879Z,100412.13
2023-08-30T07:09:33.183Z,100416.22
2023-08-30T07:10:36.047Z,100411.44
2023-08-30T07:11:38.171Z,100410.34
2023-08-30T07:12:40.193Z,100420.63
2023-08-30T07:13:42.206Z,100412.31
2023-08-30T07:14:43.828Z,100411.13
2023-08-30T07:15:46.230Z,100422.25
2023-08-30T07:16:51.011Z,100411.47
2023-08-30T07:17:55.092Z,100413.78
2023-08-30T07:18:58.555Z,100409.06
2023-08-30T07:20:01.122Z,100409.56
2023-08-30T07:21:02.941Z,100412.81
2023-08-30T07:22:06.161Z,100406.41
2023-08-30T07:23:10.756Z,100408.78
2023-08-30T07:24:13.076Z,100404.94
2023-08-30T07:25:15.314Z,100402.03
2023-08-30T07:26:17.024Z,100404.44
2023-08-30T07:27:18.711Z,100405.00
2023-08-30T07:28:21.023Z,100410.03
2023-08-30T07:29:22.761Z,100403.53
2023-08-30T07:30:24.830Z,100400.69
2023-08-30T07:31:26.825Z,100393.31
2023-08-30T07:32:28.746Z,100404.69
2023-08-30T07:33:31.379Z,100405.38
2023-08-30T07:34:32.982Z,100403.47
2023-08-30T07:35:35.119Z,100398.84
2023-08-30T07:36:46.245Z,100395.16
2023-08-30T07:37:49.853Z,100401.97
2023-08-30T07:38:51.939Z,100405.19
2023-08-30T07:39:54.344Z,100400.47
2023-08-30T07:40:56.660Z,100400.09
2023-08-30T07:41:58.528Z,100398.00
2023-08-30T07:43:00.416Z,100399.53
2023-08-30T07:44:02.533Z,100398.31
2023-08-30T07:45:06.425Z,100400.00
2023-08-30T07:46:08.457Z,100405.50
2023-08-30T07:47:10.647Z,100406.06
2023-08-30T07:48:13.153Z,100412.78
2023-08-30T07:49:14.888Z,100414.31
2023-08-30T07:50:16.625Z,100408.84
2023-08-30T07:51:18.215Z,100414.94
2023-08-30T07:52:28.306Z,100414.63
2023-08-30T07:53:37.122Z,100408.09
2023-08-30T07:54:40.282Z,100421.94
2023-08-30T07:55:41.856Z,100423.44
2023-08-30T07:56:43.720Z,100422.31
2023-08-30T07:57:45.909Z,100419.34
2023-08-30T07:58:47.499Z,100421.75
2023-08-30T07:59:49.340Z,100422.28
2023-08-30T08:00:53.169Z,100423.69
2023-08-30T08:01:55.316Z,100420.66
2023-08-30T08:02:57.141Z,100422.06
2023-08-30T08:04:06.234Z,100422.72
2023-08-30T08:05:09.865Z,100425.09
2023-08-30T08:06:11.754Z,100420.41
2023-08-30T08:07:13.425Z,100418.53
2023-08-30T08:08:16.187Z,100415.66
2023-08-30T08:09:18.428Z,100411.13
2023-08-30T08:10:21.051Z,100416.97
2023-08-30T08:11:22.666Z,100408.78
2023-08-30T08:12:24.699Z,100410.38
2023-08-30T08:13:26.819Z,100412.75
2023-08-30T08:14:28.548Z,100416.06
2023-08-30T08:15:32.029Z,100419.47
2023-08-30T08:16:33.725Z,100416.66
2023-08-30T08:17:36.209Z,100424.31
2023-08-30T08:18:37.911Z,100414.53
2023-08-30T08:19:40.831Z,100418.88
2023-08-30T08:20:42.475Z,100416.88
2023-08-30T08:21:44.089Z,100429.13
2023-08-30T08:22:46.401Z,100421.16
2023-08-30T08:23:51.151Z,100420.09
2023-08-30T08:24:55.195Z,100420.72
2023-08-30T08:26:01.673Z,100414.13
2023-08-30T08:27:03.717Z,100422.66
2023-08-30T08:28:06.374Z,100423.28
2023-08-30T08:29:08.211Z,100421.19
2023-08-30T08:30:11.154Z,100416.59
2023-08-30T08:31:13.071Z,100421.63
2023-08-30T08:32:15.034Z,100423.41
2023-08-30T08:33:17.675Z,100420.47
2023-08-30T08:34:19.661Z,100414.91
2023-08-30T08:35:21.638Z,100427.06
2023-08-30T08:36:32.747Z,100416.41
2023-08-30T08:37:34.974Z,100418.13
2023-08-30T08:38:36.694Z,100418.25
2023-08-30T08:39:38.332Z,100422.59
2023-08-30T08:40:43.347Z,100415.47
2023-08-30T08:41:46.271Z,100414.50
2023-08-30T08:42:51.762Z,100418.75
2023-08-30T08:43:53.678Z,100421.13
2023-08-30T08:44:57.985Z,100418.97
2023-08-30T08:46:03.606Z,100416.03
2023-08-30T08:47:06.013Z,100413.03
2023-08-30T08:48:08.694Z,100418.13
2023-08-30T08:49:16.386Z,100422.28
2023-08-30T08:50:18.911Z,100416.75
2023-08-30T08:51:22.069Z,100422.72
2023-08-30T08:52:31.710Z,100423.91
2023-08-30T08:53:39.350Z,100427.50
2023-08-30T08:54:41.590Z,100434.53
2023-08-30T08:55:45.130Z,100432.22
2023-08-30T08:56:47.248Z,100432.22
2023-08-30T08:57:50.166Z,100426.78
2023-08-30T08:58:51.865Z,100432.00
2023-08-30T08:59:56.524Z,100429.13
2023-08-30T09:00:58.960Z,100439.53
2023-08-30T09:02:02.420Z,100428.78
2023-08-30T09:03:06.587Z,100436.66
2023-08-30T09:04:12.085Z,100425.06
2023-08-30T09:05:15.058Z,100432.81
2023-08-30T09:06:17.340Z,100433.63
2023-08-30T09:07:18.988Z,100435.13
2023-08-30T09:08:22.625Z,100434.06
2023-08-30T09:09:25.184Z,100436.50
2023-08-30T09:10:26.785Z,100428.50
2023-08-30T09:11:44.214Z,100429.34
2023-08-30T09:12:46.338Z,100432.75
2023-08-30T09:13:48.261Z,100434.06
2023-08-30T09:14:57.362Z,100431.28
2023-08-30T09:16:00.239Z,100436.50
2023-08-30T09:17:03.704Z,100434.44
2023-08-30T09:18:06.097Z,100441.38
2023-08-30T09:19:12.152Z,100431.38
2023-08-30T09:20:14.634Z,100431.25
2023-08-30T09:21:16.536Z,100437.31
2023-08-30T09:22:18.257Z,100430.31
2023-08-30T09:23:25.709Z,100430.31
2023-08-30T09:24:38.852Z,100433.69
2023-08-30T09:25:41.223Z,100436.13
2023-08-30T09:26:48.961Z,100438.06
2023-08-30T09:27:51.208Z,100434.34
2023-08-30T09:28:53.119Z,100427.94
2023-08-30T09:29:59.905Z,100430.38
2023-08-30T09:31:13.615Z,100432.19
2023-08-30T09:32:23.094Z,100431.22
2023-08-30T09:33:34.816Z,100426.56
2023-08-30T09:34:36.674Z,100429.53
2023-08-30T09:35:46.216Z,100430.16
2023-08-30T09:36:50.126Z,100426.31
2023-08-30T09:37:51.777Z,100426.31
2023-08-30T09:38:54.035Z,100427.91
2023-08-30T09:39:56.321Z,100425.13
2023-08-30T09:41:05.880Z,100427.69
2023-08-30T09:42:08.999Z,100424.19
2023-08-30T09:43:13.673Z,100425.97
2023-08-30T09:44:18.372Z,100418.75
2023-08-30T09:45:23.941Z,100419.34
2023-08-30T09:46:37.417Z,100416.56
2023-08-30T09:47:51.640Z,100417.22
2023-08-30T09:48:55.996Z,100424.38
2023-08-30T09:50:01.099Z,100420.72
2023-08-30T09:51:05.000Z,100414.31
2023-08-30T09:52:10.116Z,100418.47
2023-08-30T09:53:16.316Z,100414.75
2023-08-30T09:55:30.642Z,100414.00
2023-08-30T09:56:36.940Z,100411.22
2023-08-30T09:57:40.137Z,100412.81
2023-08-30T09:58:41.957Z,100413.56
2023-08-30T09:59:44.098Z,100413.78
2023-08-30T10:00:47.481Z,100413.56
2023-08-30T10:01:49.934Z,100413.31
2023-08-30T10:03:29.119Z,100418.66
2023-08-30T10:04:14.377Z,100413.97
2023-08-30T10:05:17.492Z,100408.28
2023-08-30T10:06:19.899Z,100404.53
2023-08-30T10:07:22.669Z,100402.84
2023-08-30T10:08:30.812Z,100404.34
2023-08-30T10:09:33.771Z,100406.78
2023-08-30T10:10:36.681Z,100407.22
2023-08-30T10:11:39.966Z,100405.50
2023-08-30T10:12:50.405Z,100403.47
2023-08-30T10:13:56.732Z,100410.44
2023-08-30T10:15:00.730Z,100402.91
2023-08-30T10:16:06.423Z,100398.44
2023-08-30T10:17:12.711Z,100402.84
2023-08-30T10:18:21.967Z,100403.56
2023-08-30T10:19:28.370Z,100405.97
2023-08-30T10:20:32.809Z,100407.94
2023-08-30T10:21:37.049Z,100412.06
2023-08-30T10:22:41.152Z,100409.84
2023-08-30T10:23:44.782Z,100408.03
2023-08-30T10:25:09.871Z,100402.72
2023-08-30T10:26:13.620Z,100407.06
2023-08-30T10:27:17.453Z,100406.34
2023-08-30T10:28:21.161Z,100403.56
2023-08-30T10:29:24.971Z,100407.81
2023-08-30T10:30:27.440Z,100405.16
2023-08-30T10:31:31.269Z,100400.16
2023-08-30T10:32:33.683Z,100398.69
2023-08-30T10:33:51.076Z,100405.25
2023-08-30T10:34:52.946Z,100408.91
2023-08-30T10:35:56.930Z,100393.75
2023-08-30T10:37:03.642Z,100403.47
2023-08-30T10:38:05.953Z,100399.75
2023-08-30T10:39:12.842Z,100395.03
2023-08-30T10:40:14.876Z,100402.72
2023-08-30T10:41:22.142Z,100402.06
2023-08-30T10:42:25.144Z,100401.97
2023-08-30T10:43:32.548Z,100401.13
2023-08-30T10:44:35.158Z,100405.59
2023-08-30T10:45:38.571Z,100407.19
2023-08-30T10:46:41.571Z,100403.78
2023-08-30T10:47:43.520Z,100404.75
2023-08-30T10:48:45.964Z,100401.84
2023-08-30T10:49:49.870Z,100406.94
2023-08-30T10:50:51.908Z,100399.69
2023-08-30T10:52:02.339Z,100408.53
2023-08-30T10:53:06.795Z,100410.88
2023-08-30T10:54:17.097Z,100406.25
2023-08-30T10:55:23.703Z,100411.38
2023-08-30T10:56:30.407Z,100405.06
2023-08-30T10:57:32.384Z,100406.53
2023-08-30T10:58:43.193Z,100398.41
2023-08-30T11:00:15.426Z,100404.59
2023-08-30T11:01:17.350Z,100398.41
2023-08-30T11:02:20.685Z,100406.03
2023-08-30T11:03:22.806Z,100404.44
2023-08-30T11:04:26.149Z,100405.03
2023-08-30T11:05:29.084Z,100406.84
2023-08-30T11:06:31.146Z,100398.94
2023-08-30T11:07:32.906Z,100397.81
2023-08-30T11:08:36.260Z,100402.44
2023-08-30T11:09:40.918Z,100395.59
2023-08-30T11:10:43.854Z,100401.56
2023-08-30T11:11:47.140Z,100399.75
2023-08-30T11:12:52.941Z,100389.94
2023-08-30T11:13:54.865Z,100393.44
2023-08-30T11:14:57.045Z,100394.06
2023-08-30T11:16:05.914Z,100396.09
2023-08-30T11:17:11.342Z,100396.22
2023-08-30T11:18:13.572Z,100391.94
2023-08-30T11:19:16.722Z,100390.06
2023-08-30T11:20:20.839Z,100397.22
2023-08-30T11:21:22.573Z,100387.47
2023-08-30T11:22:25.067Z,100383.75
2023-08-30T11:23:26.850Z,100386.19
2023-08-30T11:24:28.532Z,100392.25
2023-08-30T11:25:31.122Z,100384.03
2023-08-30T11:26:33.214Z,100384.53
2023-08-30T11:27:35.114Z,100385.75
2023-08-30T11:28:37.339Z,100389.53
2023-08-30T11:29:41.272Z,100386.63
2023-08-30T11:30:42.950Z,100386.16
2023-08-30T11:31:46.913Z,100380.72
2023-08-30T11:32:48.677Z,100393.19
2023-08-30T11:34:01.242Z,100385.44
2023-08-30T11:35:03.815Z,100380.09
2023-08-30T11:36:06.521Z,100383.16
2023-08-30T11:37:09.950Z,100379.63
2023-08-30T11:38:11.892Z,100383.75
2023-08-30T11:39:14.788Z,100367.75
2023-08-30T11:40:16.677Z,100378.44
2023-08-30T11:41:18.459Z,100373.97
2023-08-30T11:42:20.797Z,100369.22
2023-08-30T11:43:22.638Z,100370.94
2023-08-30T11:44:25.519Z,100376.28
2023-08-30T11:45:27.210Z,100371.66
2023-08-30T11:46:28.834Z,100371.19
2023-08-30T11:47:30.964Z,100375.94
2023-08-30T11:48:33.155Z,100373.66
2023-08-30T11:49:35.478Z,100368.31
2023-08-30T11:50:43.517Z,100367.66
2023-08-30T11:51:50.599Z,100369.69
2023-08-30T11:52:52.994Z,100371.78
2023-08-30T11:53:55.381Z,100365.09
2023-08-30T11:54:57.395Z,100364.84
2023-08-30T11:55:59.636Z,100364.50
2023-08-30T11:57:01.808Z,100366.19
2023-08-30T11:58:03.460Z,100363.16
2023-08-30T11:59:05.661Z,100359.16
2023-08-30T12:00:13.778Z,100357.94
2023-08-30T12:01:16.186Z,100348.59
2023-08-30T12:02:18.903Z,100351.75
2023-08-30T12:03:21.446Z,100353.09
2023-08-30T12:04:23.202Z,100349.78
2023-08-30T12:05:27.369Z,100351.88
2023-08-30T12:06:29.077Z,100349.47
2023-08-30T12:07:32.051Z,100349.59
2023-08-30T12:08:33.710Z,100350.53
2023-08-30T12:09:36.441Z,100349.47